Mountain Home Air Force Base
KMUO : now visible

Airfield :











YOU CAN JOIN US ON...

 
LOGIN :

Register | Disclaimer

   EN    FR    IT 

 









Legend :    VFR   Marginal VFR   IFR   Intensive IFR   Very Intensive IFR
Visi :
Ceiling :
>= 8 km
>= 3000ft
5 to 8 km
1000 to 3000 ft
1500m to 5 km
500 to 1000 ft
800 to 1500m
200 to 500 ft
< 800m
< 200 ft
Symbols :   Thunderstorms  Fog  Heavy snow  Heavy precipitations  Wind > 20 kt






- Airport Elevation : 2996 ft


KMUO - Mountain Home Air Force Base

CURRENT METAR :
  • 220456Z AUTO 00000KT 10SM SCT027 SCT039 BKN050 04/04 A2999 RMK AO2 RAE52DZB52E53 SLP168 P0002 T00380038 $

EXPIRED METARs :
  • 220441Z AUTO 36006KT 10SM -RA BKN027 BKN034 04/04 A2999 RMK AO2 CIG 026 RWY30 SLP168 $
  • 220426Z AUTO 33011KT 10SM -RA SCT026 OVC034 04/04 A2999 RMK AO2 SLP168 $
  • 220411Z AUTO 33012KT 10SM -RA BKN027 OVC036 05/05 A2998 RMK AO2 CIG 027V036 CIG 026 RWY30 SLP164 $
  • 220358Z 30007KT 270V340 10SM -RA FEW022 SCT030 OVC037 05/05 A2997 RMK RAE07RAB12E26RAB30E44RAB50 SLP161 P0000 T00500050
  • 220258Z 09007KT 10SM -RA FEW030 BKN041 OVC050 05/05 A2994 RMK DZB24E26RAB26E35RAB43E55DZB55E56RAB56 SLP151 P0000 60000 T00490049 52015
  • 220235Z 08003KT 10SM -RA FEW034 SCT047 OVC050 05/05 A2994 RMK DZB24E26RAB26 SLP153

TAF TAF KMUO
Valid from the 22 at 02:00 until the 23 at 08:00 UTC


220200Z 2202/2308 12012G18KT 9999 VCSH BKN080 610802 QNH2992INS
BECMG 2204/2205 32012KT 9000 -SHRA BKN080 610802 QNH2995INS
BECMG 2206/2207 32009KT 9999 VCSH SCT080 QNH3000INS
BECMG 2222/2223 VRB06KT 9999 VCSH OVC070 610703 QNH3015INS
BECMG 2302/2303 12012KT 9999 VCSH OVC050 610505 QNH3021INS TX05/2223Z TNM02/2215Z



MET'MAP, your aeronautical weather chart ! - Copyright ORBIFLY December 2007 - Disclaimer

ORBIFLY MET'MAP TEAM :

Programming & Development : Alexandra Zaïnal
Concept & original design : Baudouin d'Aumeries
Assistance for programming : Marc-Olivier Méhu
Technical & hardware support : Manuel Goepfert

Contact : metmap@orbifly.com




SOURCES & CREDITS :

   NOAA       Earth
Advisory